Time;durP1;ratioP1;P1;durP2;ratioP2;P2;SDS_P1;SDS_P2;PMS_P1;PMS_P2;Temp;Humidity;BMP_temperature;BMP_pressure;BME280_temperature;BME280_humidity;BME280_pressure;Samples;Min_cycle;Max_cycle;Signal;HPM_P1;HPM_P2
2023/08/27 00:01:59;;;;;;;3.75;2.13;;;16.50;99.90;;;;;;5050609;28;20120;-68
2023/08/27 00:04:25;;;;;;;4.38;2.60;;;16.50;99.90;;;;;;5056367;28;20043;-69
2023/08/27 00:06:51;;;;;;;2.55;2.30;;;16.50;99.90;;;;;;5052628;28;20040;-69
2023/08/27 00:09:16;;;;;;;3.97;2.35;;;16.50;99.90;;;;;;5056036;28;20036;-69
2023/08/27 00:11:42;;;;;;;3.15;2.58;;;16.40;99.90;;;;;;5051833;28;20028;-69
2023/08/27 00:14:08;;;;;;;3.78;2.40;;;16.40;99.90;;;;;;5055696;28;20028;-68
2023/08/27 00:16:36;;;;;;;3.00;2.30;;;16.40;99.90;;;;;;5048679;28;20381;-69
2023/08/27 00:19:03;;;;;;;3.90;2.10;;;16.40;99.90;;;;;;5054515;28;20033;-68
2023/08/27 00:21:29;;;;;;;4.50;2.22;;;16.40;99.90;;;;;;5053210;28;20077;-69
2023/08/27 00:23:55;;;;;;;5.22;2.28;;;16.40;99.90;;;;;;5052965;28;20424;-68
2023/08/27 00:26:21;;;;;;;3.88;2.22;;;16.30;99.90;;;;;;5052779;28;20032;-69
2023/08/27 00:28:46;;;;;;;3.42;2.38;;;16.30;99.90;;;;;;5052787;28;20044;-68
2023/08/27 00:31:12;;;;;;;3.63;2.63;;;16.20;99.90;;;;;;5040356;28;20025;-68
2023/08/27 00:33:38;;;;;;;6.00;3.05;;;16.10;99.90;;;;;;5038629;28;20028;-68
2023/08/27 00:36:04;;;;;;;5.45;2.40;;;16.10;99.90;;;;;;5052832;28;20025;-69
2023/08/27 00:38:31;;;;;;;3.88;2.60;;;16.00;99.90;;;;;;5040638;28;20032;-69
2023/08/27 00:40:57;;;;;;;3.85;2.60;;;16.00;99.90;;;;;;5034318;28;20487;-69
2023/08/27 00:43:23;;;;;;;5.45;2.40;;;15.90;99.90;;;;;;5038631;28;20044;-68
2023/08/27 00:45:49;;;;;;;3.45;2.40;;;15.90;99.90;;;;;;5052382;28;20035;-68
2023/08/27 00:48:15;;;;;;;3.90;2.58;;;15.90;99.90;;;;;;5041893;28;20029;-68
2023/08/27 00:50:42;;;;;;;4.30;2.38;;;15.90;99.90;;;;;;5035115;28;20064;-68
2023/08/27 00:53:08;;;;;;;4.72;2.90;;;16.00;99.90;;;;;;5041240;28;20029;-69
2023/08/27 00:55:35;;;;;;;4.68;2.85;;;16.00;99.90;;;;;;5052349;28;20048;-68
2023/08/27 00:58:03;;;;;;;3.53;2.60;;;16.00;99.90;;;;;;5040722;28;20499;-68
2023/08/27 01:00:29;;;;;;;4.10;2.30;;;16.10;99.90;;;;;;5053432;28;20039;-68
2023/08/27 01:02:55;;;;;;;2.75;2.45;;;16.10;99.90;;;;;;5051402;28;20633;-68
2023/08/27 01:05:24;;;;;;;4.00;2.67;;;16.10;99.90;;;;;;5037446;28;20033;-68
2023/08/27 01:07:58;;;;;;;4.35;2.75;;;16.20;99.90;;;;;;5039811;28;20140;-69
2023/08/27 01:10:52;;;;;;;4.63;2.80;;;16.20;99.90;;;;;;5034286;28;20031;-68
2023/08/27 01:13:35;;;;;;;5.15;3.22;;;16.20;99.90;;;;;;5037484;28;20741;-68
2023/08/27 01:16:02;;;;;;;3.38;2.67;;;16.20;99.90;;;;;;5019919;28;20037;-68
2023/08/27 01:18:29;;;;;;;3.05;2.40;;;16.20;99.90;;;;;;5034737;28;20123;-68
2023/08/27 01:20:56;;;;;;;4.47;2.42;;;16.10;99.90;;;;;;5034920;28;20025;-69
2023/08/27 01:23:24;;;;;;;5.25;2.63;;;16.10;99.90;;;;;;5038201;28;20701;-68
2023/08/27 01:25:52;;;;;;;5.28;2.60;;;16.10;99.90;;;;;;5034466;28;20460;-68
2023/08/27 01:28:37;;;;;;;5.53;2.67;;;16.10;99.90;;;;;;5042644;28;20028;-68
2023/08/27 01:31:09;;;;;;;3.03;2.50;;;16.00;99.90;;;;;;5018371;28;20032;-69
2023/08/27 01:33:37;;;;;;;2.85;2.33;;;16.00;99.90;;;;;;5034654;28;20025;-69
2023/08/27 01:36:04;;;;;;;3.15;2.60;;;16.00;99.90;;;;;;5049987;28;20723;-69
2023/08/27 01:38:29;;;;;;;5.55;3.03;;;16.00;99.90;;;;;;5035280;28;20060;-69
2023/08/27 01:40:55;;;;;;;4.07;2.75;;;16.00;99.90;;;;;;5050859;28;20977;-69
2023/08/27 01:43:21;;;;;;;5.03;2.95;;;16.00;99.90;;;;;;5037351;28;20443;-68
2023/08/27 01:45:47;;;;;;;5.43;3.58;;;16.00;99.90;;;;;;5033747;28;20055;-69
2023/08/27 01:48:14;;;;;;;3.08;2.78;;;16.00;99.90;;;;;;5042088;28;20036;-69
2023/08/27 01:50:40;;;;;;;3.63;2.92;;;16.00;99.90;;;;;;5035917;28;20036;-69
2023/08/27 01:53:06;;;;;;;3.50;2.92;;;16.00;99.90;;;;;;5037875;28;20124;-69
2023/08/27 01:55:33;;;;;;;4.72;2.60;;;16.10;99.90;;;;;;5036305;28;20128;-68
2023/08/27 01:57:59;;;;;;;5.78;3.10;;;16.10;99.90;;;;;;5037039;28;20400;-69
2023/08/27 02:00:25;;;;;;;4.95;3.03;;;16.10;99.90;;;;;;5021654;28;20032;-69
2023/08/27 02:02:52;;;;;;;3.55;2.88;;;16.20;99.90;;;;;;5035693;28;20033;-68
2023/08/27 02:05:18;;;;;;;3.28;2.38;;;16.20;99.90;;;;;;5054196;28;20472;-68
2023/08/27 02:07:44;;;;;;;4.57;2.80;;;16.20;99.90;;;;;;5036489;28;20037;-68
2023/08/27 02:10:10;;;;;;;5.15;2.55;;;16.20;99.90;;;;;;5039878;28;20102;-69
2023/08/27 02:12:36;;;;;;;3.35;2.63;;;16.20;99.90;;;;;;5050963;28;20040;-69
2023/08/27 02:15:07;;;;;;;4.78;2.92;;;16.20;99.90;;;;;;5038333;28;20041;-69
2023/08/27 02:17:33;;;;;;;4.90;2.78;;;16.20;99.90;;;;;;5051624;28;20029;-69
2023/08/27 02:19:59;;;;;;;2.92;2.20;;;16.20;99.90;;;;;;5038657;28;20037;-69
2023/08/27 02:22:25;;;;;;;4.75;2.92;;;16.20;99.90;;;;;;5037510;28;20422;-69
2023/08/27 02:24:51;;;;;;;4.22;3.05;;;16.20;99.90;;;;;;5037261;28;20041;-69
2023/08/27 02:27:17;;;;;;;3.28;2.80;;;16.20;99.90;;;;;;5052085;28;20033;-68
2023/08/27 02:29:43;;;;;;;4.28;3.05;;;16.20;99.90;;;;;;5038208;28;20064;-69
2023/08/27 02:32:09;;;;;;;4.47;2.95;;;16.20;99.90;;;;;;5050886;28;20033;-68
2023/08/27 02:34:34;;;;;;;4.88;3.13;;;16.10;99.90;;;;;;5042711;28;20127;-69
2023/08/27 02:37:00;;;;;;;3.47;2.70;;;16.10;99.90;;;;;;5054288;28;20025;-68
2023/08/27 02:39:26;;;;;;;3.97;3.15;;;16.10;99.90;;;;;;5057444;28;20074;-68
2023/08/27 02:41:52;;;;;;;3.92;2.90;;;16.10;99.90;;;;;;5038023;28;20110;-69
2023/08/27 02:44:17;;;;;;;4.00;2.78;;;16.10;99.90;;;;;;5045190;28;20523;-69
2023/08/27 02:46:43;;;;;;;3.72;3.00;;;16.20;99.90;;;;;;5036838;28;20025;-69
2023/08/27 02:49:09;;;;;;;4.75;3.00;;;16.20;99.90;;;;;;5056537;28;20127;-68
2023/08/27 02:51:35;;;;;;;5.57;2.70;;;16.20;99.90;;;;;;5055252;28;20045;-69
2023/08/27 02:54:01;;;;;;;3.63;2.70;;;16.30;99.90;;;;;;5054556;28;20067;-69
2023/08/27 02:56:30;;;;;;;3.70;2.70;;;16.30;99.90;;;;;;5040211;28;20143;-69
2023/08/27 02:59:01;;;;;;;3.42;2.83;;;16.30;99.90;;;;;;5042575;28;20035;-69
2023/08/27 03:01:27;;;;;;;4.15;2.75;;;16.30;99.90;;;;;;5039986;28;20089;-69
2023/08/27 03:03:52;;;;;;;3.85;2.50;;;16.30;99.90;;;;;;5042246;28;20766;-69
2023/08/27 03:06:18;;;;;;;4.28;3.10;;;16.20;99.90;;;;;;5052039;28;20123;-69
2023/08/27 03:08:45;;;;;;;4.55;3.08;;;16.30;99.90;;;;;;5041931;28;20594;-69
2023/08/27 03:11:11;;;;;;;4.85;3.15;;;16.20;99.90;;;;;;5042087;28;20111;-69
2023/08/27 03:13:38;;;;;;;5.03;2.78;;;16.20;99.90;;;;;;5038876;28;20645;-69
2023/08/27 03:16:03;;;;;;;3.80;2.70;;;16.20;99.90;;;;;;5049614;28;20059;-68
2023/08/27 03:18:30;;;;;;;4.82;2.78;;;16.20;99.90;;;;;;5054880;28;20736;-67
2023/08/27 03:20:56;;;;;;;3.05;2.40;;;16.20;99.90;;;;;;5040943;28;20079;-69
2023/08/27 03:23:22;;;;;;;3.70;2.75;;;16.10;99.90;;;;;;5054293;28;20048;-69
2023/08/27 03:25:51;;;;;;;3.83;2.80;;;16.10;99.90;;;;;;5055013;28;20663;-70
2023/08/27 03:28:19;;;;;;;4.07;3.13;;;16.20;99.90;;;;;;5039747;28;20056;-69
2023/08/27 03:30:47;;;;;;;6.78;3.30;;;16.20;99.90;;;;;;5040056;28;20644;-68
2023/08/27 03:33:12;;;;;;;3.65;2.60;;;16.20;99.90;;;;;;5038512;28;20033;-69
2023/08/27 03:35:39;;;;;;;6.75;3.22;;;16.20;99.90;;;;;;5054700;28;20033;-69
2023/08/27 03:38:06;;;;;;;4.45;2.90;;;16.10;99.90;;;;;;5020353;28;20594;-68
2023/08/27 03:40:32;;;;;;;3.55;2.83;;;16.10;99.90;;;;;;5042355;28;20032;-68
2023/08/27 03:42:57;;;;;;;6.80;3.35;;;16.10;99.90;;;;;;5036532;28;20033;-69
2023/08/27 03:45:24;;;;;;;2.78;2.50;;;16.10;99.90;;;;;;5042027;28;20049;-69
2023/08/27 03:47:50;;;;;;;4.65;3.00;;;16.10;99.90;;;;;;5036494;28;20489;-68
2023/08/27 03:50:16;;;;;;;4.35;3.40;;;16.10;99.90;;;;;;5040170;28;20062;-69
2023/08/27 03:52:42;;;;;;;5.32;3.38;;;16.20;99.90;;;;;;5035053;28;20028;-69
2023/08/27 03:55:08;;;;;;;4.82;2.45;;;16.20;99.90;;;;;;5042438;28;20473;-69
2023/08/27 03:57:34;;;;;;;6.65;3.40;;;16.20;99.90;;;;;;5036892;28;20029;-69
2023/08/27 04:00:00;;;;;;;5.60;3.72;;;16.30;99.90;;;;;;5041432;28;20071;-68
2023/08/27 04:02:26;;;;;;;4.15;3.42;;;16.30;99.90;;;;;;5054480;28;20483;-68
2023/08/27 04:04:52;;;;;;;4.13;3.25;;;16.40;99.90;;;;;;5052675;28;20555;-69
2023/08/27 04:07:19;;;;;;;3.55;3.20;;;16.40;99.90;;;;;;5051341;28;20116;-68
2023/08/27 04:09:45;;;;;;;3.53;2.85;;;16.40;99.90;;;;;;5043493;28;20450;-69
2023/08/27 04:12:11;;;;;;;4.43;2.70;;;16.50;99.90;;;;;;5036377;28;20863;-68
2023/08/27 04:14:37;;;;;;;4.05;3.15;;;16.40;99.90;;;;;;5048419;28;20071;-69
2023/08/27 04:17:03;;;;;;;10.10;3.53;;;16.50;99.90;;;;;;5052409;28;20035;-69
2023/08/27 04:19:28;;;;;;;5.05;3.45;;;16.50;99.90;;;;;;5041136;28;20542;-69
2023/08/27 04:21:54;;;;;;;3.88;3.08;;;16.50;99.90;;;;;;5038040;28;20025;-68
2023/08/27 04:24:22;;;;;;;6.22;3.30;;;16.50;99.90;;;;;;5038394;28;20040;-68
2023/08/27 04:26:48;;;;;;;4.38;3.40;;;16.50;99.90;;;;;;5038367;28;20029;-68
2023/08/27 04:29:14;;;;;;;6.93;3.00;;;16.50;99.90;;;;;;5053906;28;20130;-69
2023/08/27 04:31:40;;;;;;;4.47;3.25;;;16.40;99.90;;;;;;5038704;28;20036;-68
2023/08/27 04:34:06;;;;;;;4.13;3.00;;;16.50;99.90;;;;;;5036007;28;20665;-69
2023/08/27 04:36:32;;;;;;;4.80;3.17;;;16.50;99.90;;;;;;5037655;28;20028;-69
2023/08/27 04:38:58;;;;;;;6.25;3.72;;;16.50;99.90;;;;;;5034713;28;20480;-69
2023/08/27 04:41:24;;;;;;;5.18;3.10;;;16.50;99.90;;;;;;5041185;28;20808;-69
2023/08/27 04:43:50;;;;;;;4.38;3.22;;;16.50;99.90;;;;;;5021575;28;20493;-69
2023/08/27 04:46:17;;;;;;;6.32;3.75;;;16.50;99.90;;;;;;5042481;28;20127;-69
2023/08/27 04:48:43;;;;;;;6.45;3.22;;;16.50;99.90;;;;;;5034721;28;20190;-69
2023/08/27 04:51:09;;;;;;;4.15;3.40;;;16.50;99.90;;;;;;5051616;28;20130;-68
2023/08/27 04:53:35;;;;;;;4.15;2.95;;;16.50;99.90;;;;;;5051921;28;20024;-68
2023/08/27 04:56:02;;;;;;;3.55;3.08;;;16.40;99.90;;;;;;5053352;28;20082;-69
2023/08/27 04:58:27;;;;;;;3.30;3.00;;;16.40;99.90;;;;;;5052356;28;20443;-69
2023/08/27 05:00:54;;;;;;;4.65;2.80;;;16.40;99.90;;;;;;5022268;28;20040;-68
2023/08/27 05:03:19;;;;;;;5.22;2.88;;;16.40;99.90;;;;;;5037871;28;20059;-68
2023/08/27 05:05:45;;;;;;;4.22;3.08;;;16.40;99.90;;;;;;5039233;28;20025;-69
2023/08/27 05:08:11;;;;;;;4.05;3.20;;;16.40;99.90;;;;;;5038235;28;20745;-69
2023/08/27 05:10:37;;;;;;;3.30;2.70;;;16.50;99.90;;;;;;5051949;28;20039;-68
2023/08/27 05:13:03;;;;;;;6.57;2.90;;;16.50;99.90;;;;;;5035382;28;20632;-69
2023/08/27 05:15:29;;;;;;;4.18;3.20;;;16.50;99.90;;;;;;5039506;28;20017;-68
2023/08/27 05:17:55;;;;;;;4.18;3.15;;;16.60;99.90;;;;;;5037358;28;20403;-68
2023/08/27 05:20:21;;;;;;;4.47;2.55;;;16.60;99.90;;;;;;5040392;28;20036;-69
2023/08/27 05:22:47;;;;;;;5.53;2.90;;;16.70;99.90;;;;;;5033481;28;20024;-68
2023/08/27 05:25:13;;;;;;;3.85;2.83;;;16.80;99.90;;;;;;5039072;28;20021;-68
2023/08/27 05:27:43;;;;;;;6.53;3.45;;;16.90;99.90;;;;;;5037480;28;20028;-68
2023/08/27 05:30:14;;;;;;;5.60;3.13;;;16.90;99.90;;;;;;5035334;28;20649;-68
2023/08/27 05:32:41;;;;;;;3.72;2.70;;;17.00;99.90;;;;;;5052143;28;20108;-68
2023/08/27 05:35:08;;;;;;;3.20;2.65;;;17.00;99.90;;;;;;5038917;28;20043;-68
2023/08/27 05:37:34;;;;;;;5.70;2.50;;;17.10;99.90;;;;;;5038251;28;20733;-69
2023/08/27 05:40:01;;;;;;;3.78;2.60;;;17.20;99.90;;;;;;5051262;28;20536;-68
2023/08/27 05:42:27;;;;;;;5.60;3.13;;;17.20;99.90;;;;;;5054116;28;20055;-69
2023/08/27 05:44:53;;;;;;;4.88;2.75;;;17.30;99.90;;;;;;5036664;28;20057;-68
2023/08/27 05:47:19;;;;;;;3.63;2.70;;;17.30;99.90;;;;;;5046844;28;20776;-68
2023/08/27 05:49:46;;;;;;;5.00;2.92;;;17.40;99.90;;;;;;5035480;28;20051;-69
2023/08/27 05:52:12;;;;;;;3.85;2.95;;;17.40;99.90;;;;;;5040882;28;20032;-69
2023/08/27 05:54:38;;;;;;;3.80;3.25;;;17.40;99.90;;;;;;5034669;28;20033;-68
2023/08/27 05:57:05;;;;;;;4.85;2.95;;;17.50;99.90;;;;;;5040111;28;20036;-70
2023/08/27 05:59:30;;;;;;;5.25;3.00;;;17.60;99.90;;;;;;5034500;28;20021;-68
2023/08/27 06:01:58;;;;;;;3.35;3.03;;;17.60;99.90;;;;;;5039787;28;20778;-68
2023/08/27 06:04:24;;;;;;;3.90;2.90;;;17.70;99.90;;;;;;5035980;28;20024;-69
2023/08/27 06:06:50;;;;;;;5.88;3.05;;;17.70;99.90;;;;;;5040268;28;20056;-67
2023/08/27 06:09:17;;;;;;;4.30;3.15;;;17.80;99.90;;;;;;5056264;28;20048;-67
2023/08/27 06:11:42;;;;;;;3.85;2.88;;;17.80;99.90;;;;;;5055359;28;20583;-68
2023/08/27 06:14:08;;;;;;;4.65;3.10;;;17.90;99.90;;;;;;5048223;28;20048;-67
2023/08/27 06:16:34;;;;;;;4.63;3.08;;;18.00;99.90;;;;;;5042600;28;20112;-68
2023/08/27 06:19:00;;;;;;;3.67;2.95;;;18.10;99.90;;;;;;5044738;28;20044;-68
2023/08/27 06:21:27;;;;;;;4.45;3.20;;;18.20;99.90;;;;;;5055911;28;20415;-68
2023/08/27 06:23:53;;;;;;;4.25;3.15;;;18.20;99.90;;;;;;5041684;28;20039;-68
2023/08/27 06:26:19;;;;;;;3.05;2.53;;;18.30;99.90;;;;;;5043497;28;20491;-68
2023/08/27 06:28:46;;;;;;;3.22;2.70;;;18.40;99.90;;;;;;5038377;28;20028;-67
2023/08/27 06:31:13;;;;;;;4.55;2.75;;;18.40;99.90;;;;;;5055784;28;20400;-68
2023/08/27 06:33:40;;;;;;;3.15;2.58;;;18.40;99.90;;;;;;5040207;28;20025;-68
2023/08/27 06:36:06;;;;;;;4.90;3.20;;;18.50;99.90;;;;;;5034872;28;20036;-67
2023/08/27 06:38:32;;;;;;;3.13;2.55;;;18.60;99.90;;;;;;5043703;28;20061;-67
2023/08/27 06:40:59;;;;;;;3.78;2.65;;;18.70;99.90;;;;;;5044116;28;20063;-67
2023/08/27 06:43:25;;;;;;;3.35;2.63;;;18.90;99.90;;;;;;5044252;28;20131;-67
2023/08/27 06:45:51;;;;;;;5.25;2.22;;;19.00;99.90;;;;;;5042270;28;20570;-67
2023/08/27 06:48:18;;;;;;;2.95;2.50;;;19.10;99.90;;;;;;5043447;28;20146;-68
2023/08/27 06:50:45;;;;;;;2.95;2.60;;;19.20;99.90;;;;;;5052872;28;20036;-67
2023/08/27 06:53:12;;;;;;;3.00;2.28;;;19.20;99.90;;;;;;5055870;28;20059;-67
2023/08/27 06:55:38;;;;;;;2.97;2.40;;;19.30;99.90;;;;;;5039617;28;20064;-67
2023/08/27 06:58:04;;;;;;;2.60;2.13;;;19.20;99.90;;;;;;5042623;28;20025;-67
2023/08/27 07:00:31;;;;;;;3.63;2.60;;;19.20;99.90;;;;;;5040867;28;20512;-64
2023/08/27 07:02:57;;;;;;;3.22;2.35;;;19.30;99.90;;;;;;5040981;28;20051;-70
2023/08/27 07:05:23;;;;;;;4.90;2.80;;;19.30;99.90;;;;;;5055590;28;20013;-66
2023/08/27 07:07:50;;;;;;;5.35;2.53;;;19.30;99.90;;;;;;5041574;28;20025;-68
2023/08/27 07:10:16;;;;;;;3.33;2.60;;;19.30;99.90;;;;;;5040257;28;20031;-70
2023/08/27 07:12:41;;;;;;;3.67;2.45;;;19.40;99.90;;;;;;5053524;28;20381;-68
2023/08/27 07:15:10;;;;;;;2.90;2.13;;;19.60;99.90;;;;;;5040445;28;20036;-68
2023/08/27 07:17:38;;;;;;;3.30;2.40;;;19.70;99.90;;;;;;5041553;28;20043;-67
2023/08/27 07:20:07;;;;;;;3.63;2.30;;;19.80;99.90;;;;;;5055268;28;20035;-68
2023/08/27 07:22:34;;;;;;;4.47;2.47;;;19.90;99.90;;;;;;5050153;28;20028;-68
2023/08/27 07:25:00;;;;;;;2.53;2.05;;;19.90;99.90;;;;;;5040110;28;20067;-68
2023/08/27 07:27:26;;;;;;;2.67;2.20;;;20.00;99.90;;;;;;5041294;28;20024;-68
2023/08/27 07:29:53;;;;;;;3.72;2.78;;;20.10;99.90;;;;;;5039347;28;20045;-68
2023/08/27 07:32:19;;;;;;;2.90;2.30;;;20.10;99.90;;;;;;5054696;28;20475;-68
2023/08/27 07:34:44;;;;;;;3.00;2.30;;;20.10;99.90;;;;;;5038512;28;20028;-68
2023/08/27 07:37:13;;;;;;;2.92;2.20;;;20.20;99.90;;;;;;5041480;28;20035;-68
2023/08/27 07:39:39;;;;;;;3.45;2.13;;;20.20;99.90;;;;;;5038596;28;20048;-68
2023/08/27 07:42:06;;;;;;;3.05;2.08;;;20.20;99.90;;;;;;5039797;28;20044;-69
2023/08/27 07:44:31;;;;;;;5.65;2.55;;;20.30;99.90;;;;;;5029895;28;20029;-67
2023/08/27 07:46:57;;;;;;;3.08;2.00;;;20.30;99.90;;;;;;5037857;28;20049;-67
2023/08/27 07:49:23;;;;;;;3.15;2.28;;;20.30;99.90;;;;;;5041439;28;20708;-67
2023/08/27 07:51:49;;;;;;;3.03;2.25;;;20.40;99.90;;;;;;5038318;28;20047;-67
2023/08/27 07:54:15;;;;;;;2.85;1.90;;;20.50;99.90;;;;;;5042359;28;20900;-67
2023/08/27 07:56:41;;;;;;;4.13;1.92;;;20.50;99.90;;;;;;5032983;28;20036;-67
2023/08/27 07:59:07;;;;;;;2.25;1.90;;;20.60;99.90;;;;;;5055262;28;20025;-67
2023/08/27 08:01:32;;;;;;;3.70;2.00;;;20.60;99.90;;;;;;5039520;28;20443;-66
2023/08/27 08:04:00;;;;;;;2.60;1.90;;;20.70;99.90;;;;;;5041148;28;20029;-68
2023/08/27 08:06:26;;;;;;;3.50;1.65;;;20.80;99.90;;;;;;5052987;28;20032;-68
2023/08/27 08:08:51;;;;;;;5.13;1.70;;;20.90;99.90;;;;;;5040580;28;20036;-68
2023/08/27 08:11:17;;;;;;;3.95;1.92;;;20.90;99.90;;;;;;5045280;28;20448;-67
2023/08/27 08:13:45;;;;;;;5.75;2.33;;;21.00;99.90;;;;;;5053767;28;20435;-69
2023/08/27 08:16:11;;;;;;;2.95;1.95;;;21.10;99.90;;;;;;5053449;28;20803;-68
2023/08/27 08:18:36;;;;;;;3.95;1.95;;;21.10;99.90;;;;;;5048724;28;20079;-65
2023/08/27 08:21:03;;;;;;;3.83;1.90;;;21.10;99.90;;;;;;5051011;28;20036;-67
2023/08/27 08:23:35;;;;;;;3.25;1.60;;;21.20;99.00;;;;;;5050220;28;20029;-66
2023/08/27 08:26:02;;;;;;;2.72;1.92;;;21.20;98.70;;;;;;5055387;28;20032;-67
2023/08/27 08:28:28;;;;;;;3.03;1.67;;;21.20;98.20;;;;;;5052634;28;20032;-63
2023/08/27 08:30:53;;;;;;;6.47;2.05;;;21.30;98.50;;;;;;5053681;28;20514;-64
2023/08/27 08:33:19;;;;;;;4.30;1.77;;;21.30;97.10;;;;;;5040746;28;20028;-65
2023/08/27 08:35:46;;;;;;;2.20;1.70;;;21.20;96.70;;;;;;5050689;28;20124;-65
2023/08/27 08:38:12;;;;;;;2.25;1.73;;;21.20;97.60;;;;;;5048112;28;20029;-64
2023/08/27 08:40:45;;;;;;;1.95;1.65;;;21.20;98.40;;;;;;5051483;28;20028;-64
2023/08/27 08:43:36;;;;;;;3.38;1.63;;;21.20;99.30;;;;;;5049148;28;20495;-64
2023/08/27 08:46:03;;;;;;;5.10;2.22;;;21.20;99.10;;;;;;5053670;28;20107;-64
2023/08/27 08:48:31;;;;;;;3.25;1.95;;;21.20;99.60;;;;;;5051232;28;20051;-64
2023/08/27 08:51:01;;;;;;;2.47;1.88;;;21.30;98.30;;;;;;5053332;28;20128;-65
2023/08/27 08:53:30;;;;;;;1.55;1.45;;;21.30;97.60;;;;;;5052842;28;20094;-64
2023/08/27 08:55:58;;;;;;;2.50;1.88;;;21.50;98.10;;;;;;5053745;28;20553;-65
2023/08/27 08:58:33;;;;;;;2.42;1.80;;;21.50;98.10;;;;;;5053310;28;20094;-65
2023/08/27 09:01:00;;;;;;;2.88;1.63;;;21.60;97.80;;;;;;5054675;28;20029;-65
2023/08/27 09:03:27;;;;;;;2.17;1.75;;;21.70;97.80;;;;;;5052282;28;20052;-64
2023/08/27 09:05:54;;;;;;;6.57;1.90;;;21.80;97.00;;;;;;5053559;28;20045;-64
2023/08/27 09:08:20;;;;;;;3.13;1.92;;;21.90;97.00;;;;;;5053031;28;20500;-64
2023/08/27 09:10:49;;;;;;;2.67;1.80;;;22.00;97.60;;;;;;5052541;28;20071;-65
2023/08/27 09:13:21;;;;;;;3.25;1.83;;;22.00;96.80;;;;;;5052587;28;20025;-64
2023/08/27 09:15:48;;;;;;;3.08;1.50;;;22.10;95.60;;;;;;5037258;28;20523;-65
2023/08/27 09:18:16;;;;;;;2.42;1.50;;;22.10;96.30;;;;;;5052924;28;20036;-64
2023/08/27 09:20:45;;;;;;;3.97;1.83;;;22.10;96.60;;;;;;5051467;28;20060;-64
2023/08/27 09:23:13;;;;;;;2.15;1.80;;;22.20;96.60;;;;;;5052188;28;20059;-64
2023/08/27 09:25:40;;;;;;;4.88;1.48;;;22.20;96.50;;;;;;5051559;28;20133;-64
2023/08/27 09:28:08;;;;;;;2.85;1.67;;;22.20;97.00;;;;;;5049203;28;20024;-64
2023/08/27 09:30:34;;;;;;;2.45;1.67;;;22.30;96.80;;;;;;5053395;28;20694;-65
2023/08/27 09:33:00;;;;;;;2.47;1.90;;;22.40;94.90;;;;;;5051393;28;20025;-65
2023/08/27 09:35:39;;;;;;;2.17;1.65;;;22.30;94.40;;;;;;5054353;28;20032;-64
2023/08/27 09:38:05;;;;;;;2.97;1.70;;;22.30;93.90;;;;;;5051859;28;20506;-65
2023/08/27 09:40:31;;;;;;;1.88;1.38;;;22.10;94.20;;;;;;5048233;28;20034;-65
2023/08/27 09:43:08;;;;;;;2.08;1.40;;;22.00;93.70;;;;;;5050472;28;20072;-64
2023/08/27 09:45:35;;;;;;;3.25;1.45;;;22.00;93.50;;;;;;5035861;28;20024;-64
2023/08/27 09:48:03;;;;;;;3.10;1.27;;;22.10;93.60;;;;;;5051867;28;20057;-65
2023/08/27 09:50:30;;;;;;;2.55;1.05;;;22.20;93.90;;;;;;5054146;28;20086;-65
2023/08/27 09:53:16;;;;;;;2.15;1.70;;;22.20;93.20;;;;;;5051353;28;20043;-65
2023/08/27 09:55:42;;;;;;;3.67;1.52;;;22.40;93.70;;;;;;5047441;28;20461;-65
2023/08/27 09:58:09;;;;;;;3.38;1.60;;;22.60;92.90;;;;;;5052609;28;20087;-65
2023/08/27 10:00:37;;;;;;;3.67;1.60;;;22.70;92.70;;;;;;5053056;28;20098;-65
2023/08/27 10:03:03;;;;;;;3.78;1.75;;;22.70;93.00;;;;;;5051446;28;20856;-64
2023/08/27 10:05:32;;;;;;;3.80;1.60;;;22.80;92.50;;;;;;5054256;28;20031;-64
2023/08/27 10:07:59;;;;;;;4.05;1.70;;;22.70;91.50;;;;;;5034383;28;20036;-64
2023/08/27 10:10:25;;;;;;;2.03;1.42;;;22.70;92.10;;;;;;5054573;28;20111;-65
2023/08/27 10:12:53;;;;;;;3.42;1.58;;;22.70;91.40;;;;;;5050728;28;20145;-65
2023/08/27 10:15:19;;;;;;;3.30;1.40;;;22.60;91.20;;;;;;5054591;28;20028;-65
2023/08/27 10:17:46;;;;;;;1.73;1.40;;;22.40;91.40;;;;;;5051015;28;20528;-65
2023/08/27 10:20:11;;;;;;;4.45;1.52;;;22.20;91.50;;;;;;5053787;28;20035;-64
2023/08/27 10:22:37;;;;;;;4.05;1.50;;;22.00;91.80;;;;;;5051415;28;20029;-65
2023/08/27 10:25:06;;;;;;;2.05;1.33;;;22.00;92.20;;;;;;5052515;28;20025;-65
2023/08/27 10:27:32;;;;;;;4.13;1.70;;;22.00;92.10;;;;;;5052093;28;20064;-65
2023/08/27 10:29:59;;;;;;;2.83;1.13;;;22.00;92.20;;;;;;5051783;28;20025;-65
2023/08/27 10:32:25;;;;;;;1.92;1.45;;;22.10;92.30;;;;;;5053202;28;20032;-65
2023/08/27 10:34:50;;;;;;;3.78;1.38;;;22.20;92.50;;;;;;5050637;28;20504;-64
2023/08/27 10:37:19;;;;;;;4.13;1.77;;;22.30;92.00;;;;;;5054522;28;20033;-65
2023/08/27 10:39:47;;;;;;;4.15;1.60;;;22.30;91.40;;;;;;5047166;28;20021;-64
2023/08/27 10:42:33;;;;;;;1.75;1.27;;;22.30;90.80;;;;;;5054238;28;20029;-65
2023/08/27 10:45:28;;;;;;;2.53;1.20;;;22.30;89.90;;;;;;5051368;28;20035;-65
2023/08/27 10:48:19;;;;;;;1.52;1.08;;;22.30;89.70;;;;;;5049735;28;20037;-64
2023/08/27 10:50:47;;;;;;;1.10;1.00;;;22.40;90.60;;;;;;5049940;28;20025;-65
2023/08/27 10:53:15;;;;;;;3.53;1.17;;;22.50;91.50;;;;;;5047130;28;20029;-65
2023/08/27 10:55:45;;;;;;;3.90;1.00;;;22.70;91.90;;;;;;5055785;28;20021;-65
2023/08/27 10:58:23;;;;;;;1.58;1.23;;;22.80;91.50;;;;;;5054783;28;20151;-65
2023/08/27 11:01:13;;;;;;;2.88;1.30;;;22.80;91.40;;;;;;5055416;28;20024;-64
2023/08/27 11:03:58;;;;;;;2.42;1.48;;;22.80;91.40;;;;;;5054679;28;20056;-65
2023/08/27 11:06:41;;;;;;;2.15;1.30;;;22.80;91.20;;;;;;5057313;28;20502;-65
2023/08/27 11:09:24;;;;;;;2.03;1.25;;;22.80;90.70;;;;;;5053386;28;20024;-66
2023/08/27 11:11:54;;;;;;;1.42;1.15;;;22.80;90.60;;;;;;5054424;28;20068;-65
2023/08/27 11:14:21;;;;;;;2.30;1.10;;;22.80;91.20;;;;;;5055113;28;20025;-65
2023/08/27 11:16:57;;;;;;;2.47;1.30;;;22.80;91.00;;;;;;5054527;28;20040;-65
2023/08/27 11:19:36;;;;;;;3.92;1.27;;;22.80;90.10;;;;;;5054782;28;20024;-65
2023/08/27 11:22:06;;;;;;;3.90;1.33;;;22.70;90.20;;;;;;5055961;28;20068;-65
2023/08/27 11:24:32;;;;;;;2.67;1.23;;;22.50;90.70;;;;;;5054415;28;20504;-64
2023/08/27 11:27:03;;;;;;;2.42;1.25;;;22.60;91.20;;;;;;5055465;28;20119;-65
2023/08/27 11:29:29;;;;;;;2.53;1.40;;;22.60;91.90;;;;;;5054989;28;20040;-65
2023/08/27 11:31:56;;;;;;;2.65;1.27;;;22.60;90.80;;;;;;5054454;28;20060;-65
2023/08/27 11:34:23;;;;;;;4.45;1.60;;;22.60;91.60;;;;;;5054664;28;20659;-65
2023/08/27 11:36:49;;;;;;;2.30;1.10;;;22.70;92.00;;;;;;5054025;28;20039;-65
2023/08/27 11:39:16;;;;;;;3.15;1.10;;;22.70;91.30;;;;;;5055184;28;20024;-64
2023/08/27 11:41:46;;;;;;;1.65;1.10;;;22.70;90.90;;;;;;5055064;28;20028;-64
2023/08/27 11:44:12;;;;;;;2.13;1.00;;;22.60;91.10;;;;;;5050892;28;20757;-64
2023/08/27 11:46:41;;;;;;;2.17;1.10;;;22.70;91.10;;;;;;5055441;28;20025;-64
2023/08/27 11:49:08;;;;;;;1.65;1.20;;;22.60;91.10;;;;;;5052945;28;20040;-64
2023/08/27 11:51:34;;;;;;;1.42;1.05;;;22.70;91.60;;;;;;5053900;28;20121;-64
2023/08/27 11:54:06;;;;;;;1.85;1.20;;;22.70;91.90;;;;;;5052905;28;20050;-64
2023/08/27 11:56:34;;;;;;;2.28;1.30;;;22.70;91.60;;;;;;5050547;28;20123;-64
2023/08/27 11:59:00;;;;;;;2.08;1.40;;;22.60;92.30;;;;;;5036517;28;20835;-64
2023/08/27 12:01:26;;;;;;;2.78;1.27;;;22.60;92.60;;;;;;5056673;28;20021;-64
2023/08/27 12:03:52;;;;;;;1.40;1.08;;;22.60;92.90;;;;;;5052909;28;20504;-64
2023/08/27 12:06:24;;;;;;;1.35;1.25;;;22.60;92.70;;;;;;5055695;28;20028;-64
2023/08/27 12:08:55;;;;;;;1.38;1.27;;;22.60;93.50;;;;;;5050973;28;20044;-64
2023/08/27 12:11:26;;;;;;;1.75;1.27;;;22.60;93.30;;;;;;5056469;28;20160;-64
2023/08/27 12:13:56;;;;;;;3.22;1.27;;;22.60;92.20;;;;;;5052283;28;20127;-64
2023/08/27 12:16:33;;;;;;;2.22;1.30;;;22.60;91.30;;;;;;5056997;28;20098;-64
2023/08/27 12:19:08;;;;;;;2.63;1.30;;;22.60;91.90;;;;;;5052502;28;20438;-64
2023/08/27 12:21:55;;;;;;;2.45;1.48;;;22.60;92.50;;;;;;5050257;28;20028;-64
2023/08/27 12:24:41;;;;;;;2.38;1.13;;;22.50;92.70;;;;;;5054759;28;20094;-64
2023/08/27 12:27:09;;;;;;;1.92;1.10;;;22.50;93.30;;;;;;5052565;28;20021;-64
2023/08/27 12:29:39;;;;;;;2.72;1.25;;;22.40;93.80;;;;;;5053179;28;20058;-64
2023/08/27 12:32:17;;;;;;;2.42;1.40;;;22.40;93.70;;;;;;5051425;28;20033;-64
2023/08/27 12:34:44;;;;;;;4.00;1.50;;;22.30;94.20;;;;;;5049987;28;20036;-64
2023/08/27 12:37:11;;;;;;;2.58;1.13;;;22.30;94.40;;;;;;5054902;28;20151;-64
2023/08/27 12:39:38;;;;;;;1.80;1.10;;;22.20;95.40;;;;;;5053290;28;20033;-64
2023/08/27 12:42:05;;;;;;;3.15;1.30;;;22.20;95.60;;;;;;5050930;28;20467;-64
2023/08/27 12:44:32;;;;;;;1.85;1.20;;;22.10;95.40;;;;;;5053328;28;20115;-64
2023/08/27 12:46:58;;;;;;;2.17;1.38;;;22.10;95.40;;;;;;5052383;28;20021;-65
2023/08/27 12:49:24;;;;;;;1.85;1.13;;;22.00;95.40;;;;;;5051042;28;20051;-64
2023/08/27 12:51:50;;;;;;;2.15;1.35;;;22.00;96.10;;;;;;5052154;28;20040;-64